createdAt,value
2023-05-16T00:01:30.228Z,13.05
2023-05-16T00:04:03.584Z,13.06
2023-05-16T00:06:35.975Z,12.92
2023-05-16T00:09:07.718Z,12.94
2023-05-16T00:11:39.383Z,12.95
2023-05-16T00:14:11.642Z,12.97
2023-05-16T00:16:43.770Z,12.86
2023-05-16T00:19:15.615Z,12.89
2023-05-16T00:21:47.852Z,12.88
2023-05-16T00:24:19.650Z,12.80
2023-05-16T00:26:51.494Z,12.69
2023-05-16T00:29:24.381Z,12.54
2023-05-16T00:31:56.582Z,12.53
2023-05-16T00:34:28.519Z,12.43
2023-05-16T00:37:00.410Z,12.34
2023-05-16T00:39:32.144Z,12.32
2023-05-16T00:42:04.099Z,12.25
2023-05-16T00:44:36.403Z,12.26
2023-05-16T00:47:08.742Z,12.25
2023-05-16T00:49:40.622Z,12.26
2023-05-16T00:52:12.864Z,12.23
2023-05-16T00:54:45.093Z,12.16
2023-05-16T00:57:18.654Z,12.14
2023-05-16T00:59:50.966Z,12.13
2023-05-16T01:02:22.793Z,12.20
2023-05-16T01:04:55.340Z,12.27
2023-05-16T01:07:28.013Z,12.31
2023-05-16T01:10:00.702Z,12.35
2023-05-16T01:12:46.586Z,12.34
2023-05-16T01:15:27.497Z,12.34
2023-05-16T01:18:07.856Z,12.38
2023-05-16T01:20:48.220Z,12.30
2023-05-16T01:23:42.978Z,12.30
2023-05-16T01:26:22.480Z,12.29
2023-05-16T01:28:55.435Z,12.29
2023-05-16T01:31:28.688Z,12.22
2023-05-16T01:34:01.734Z,12.29
2023-05-16T01:36:42.429Z,12.23
2023-05-16T01:39:21.039Z,12.22
2023-05-16T01:41:59.856Z,12.30
2023-05-16T01:44:38.757Z,12.28
2023-05-16T01:47:14.273Z,12.29
2023-05-16T01:49:52.277Z,12.37
2023-05-16T01:52:29.356Z,12.33
2023-05-16T01:55:04.091Z,12.25
2023-05-16T01:57:37.360Z,12.19
2023-05-16T02:00:12.019Z,12.15
2023-05-16T02:02:46.587Z,12.16
2023-05-16T02:05:18.371Z,12.24
2023-05-16T02:07:51.223Z,12.25
2023-05-16T02:10:23.101Z,12.26
2023-05-16T02:12:55.472Z,12.28
2023-05-16T02:15:28.079Z,12.25
2023-05-16T02:18:00.026Z,12.24
2023-05-16T02:20:32.137Z,12.22
2023-05-16T02:23:06.174Z,12.31
2023-05-16T02:25:37.863Z,12.31
2023-05-16T02:28:09.545Z,12.30
2023-05-16T02:30:41.440Z,12.24
2023-05-16T02:33:13.550Z,12.16
2023-05-16T02:35:45.251Z,12.21
2023-05-16T02:38:17.599Z,12.25
2023-05-16T02:40:49.449Z,12.24
2023-05-16T02:43:21.177Z,12.19
2023-05-16T02:45:53.520Z,12.14
2023-05-16T02:48:25.302Z,12.12
2023-05-16T02:50:57.015Z,12.16
2023-05-16T02:53:28.803Z,12.15
2023-05-16T02:56:00.531Z,12.15
2023-05-16T02:58:32.291Z,12.17
2023-05-16T03:01:04.195Z,12.10
2023-05-16T03:03:36.147Z,12.07
2023-05-16T03:06:08.647Z,12.04
2023-05-16T03:08:40.660Z,12.11
2023-05-16T03:11:12.698Z,12.04
2023-05-16T03:13:45.963Z,12.05
2023-05-16T03:16:17.707Z,12.03
2023-05-16T03:18:49.422Z,12.06
2023-05-16T03:21:21.251Z,12.02
2023-05-16T03:23:52.929Z,12.09
2023-05-16T03:26:24.632Z,11.96
2023-05-16T03:28:56.471Z,11.95
2023-05-16T03:31:28.279Z,11.96
2023-05-16T03:34:00.484Z,11.96
2023-05-16T03:36:32.376Z,12.01
2023-05-16T03:39:04.209Z,12.06
2023-05-16T03:41:36.082Z,12.10
2023-05-16T03:44:07.963Z,12.08
2023-05-16T03:46:40.412Z,12.09
2023-05-16T03:49:12.187Z,12.15
2023-05-16T03:51:43.871Z,12.15
2023-05-16T03:54:15.783Z,12.21
2023-05-16T03:56:47.516Z,12.22
2023-05-16T03:59:19.183Z,12.21
2023-05-16T04:01:51.538Z,12.15
2023-05-16T04:04:23.680Z,12.19
2023-05-16T04:06:55.352Z,12.21
2023-05-16T04:09:27.135Z,12.21
2023-05-16T04:12:02.009Z,12.26
2023-05-16T04:14:33.983Z,12.29
2023-05-16T04:17:06.329Z,12.19
2023-05-16T04:19:38.168Z,12.13
2023-05-16T04:22:09.953Z,12.19
2023-05-16T04:24:41.677Z,12.15
2023-05-16T04:27:13.470Z,12.08
2023-05-16T04:29:45.657Z,12.11
2023-05-16T04:32:17.526Z,12.09
2023-05-16T04:34:50.095Z,12.17
2023-05-16T04:37:22.416Z,12.16
2023-05-16T04:39:54.427Z,12.18
2023-05-16T04:42:25.531Z,12.14
2023-05-16T04:44:57.320Z,12.21
2023-05-16T04:47:29.247Z,12.21
2023-05-16T04:50:01.524Z,12.26
2023-05-16T04:52:33.739Z,12.28
2023-05-16T04:55:06.363Z,12.40
2023-05-16T04:57:38.261Z,12.42
2023-05-16T05:00:12.342Z,12.43
2023-05-16T05:02:44.826Z,12.55
2023-05-16T05:05:17.038Z,12.63
2023-05-16T05:07:49.373Z,12.58
2023-05-16T05:10:21.394Z,12.57
2023-05-16T05:12:53.217Z,12.53
2023-05-16T05:15:25.253Z,12.44
2023-05-16T05:17:57.122Z,12.48
2023-05-16T05:20:29.353Z,12.55
2023-05-16T05:23:01.182Z,12.58
2023-05-16T05:25:35.339Z,12.59
2023-05-16T05:28:08.249Z,12.59
2023-05-16T05:30:43.022Z,12.60
2023-05-16T05:33:18.075Z,12.62
2023-05-16T05:35:50.085Z,12.70
2023-05-16T05:38:22.536Z,12.76
2023-05-16T05:40:54.303Z,12.76
2023-05-16T05:43:26.520Z,12.85
2023-05-16T05:45:58.907Z,12.94
2023-05-16T05:48:30.234Z,13.01
2023-05-16T05:51:02.293Z,13.07
2023-05-16T05:53:34.566Z,13.11
2023-05-16T05:56:06.827Z,13.12
2023-05-16T05:58:41.863Z,13.19
2023-05-16T06:01:14.594Z,13.24
2023-05-16T06:03:46.450Z,13.24
2023-05-16T06:06:18.757Z,13.11
2023-05-16T06:08:50.893Z,13.08
2023-05-16T06:11:22.635Z,13.05
2023-05-16T06:13:54.495Z,13.06
2023-05-16T06:16:28.224Z,13.16
2023-05-16T06:19:00.045Z,13.18
2023-05-16T06:21:32.383Z,13.14
2023-05-16T06:24:04.542Z,13.12
2023-05-16T06:26:37.188Z,13.07
2023-05-16T06:29:07.343Z,13.10
2023-05-16T06:31:39.469Z,13.18
2023-05-16T06:34:11.321Z,13.26
2023-05-16T06:36:44.239Z,13.39
2023-05-16T06:39:16.050Z,13.45
2023-05-16T06:41:47.953Z,13.40
2023-05-16T06:44:20.798Z,13.51
2023-05-16T06:46:53.473Z,13.51
2023-05-16T06:49:29.230Z,13.54
2023-05-16T06:52:02.108Z,13.68
2023-05-16T06:54:33.882Z,13.79
2023-05-16T06:57:06.998Z,13.88
2023-05-16T06:59:38.832Z,13.84
2023-05-16T07:02:10.592Z,13.79
2023-05-16T07:04:42.621Z,13.77
2023-05-16T07:07:15.305Z,13.87
2023-05-16T07:09:45.531Z,13.90
2023-05-16T07:12:19.906Z,13.98
2023-05-16T07:14:51.698Z,14.02
2023-05-16T07:17:23.585Z,14.05
2023-05-16T07:19:55.524Z,14.11
2023-05-16T07:22:27.390Z,14.08
2023-05-16T07:25:01.011Z,14.10
2023-05-16T07:27:33.223Z,14.17
2023-05-16T07:30:05.784Z,14.24
2023-05-16T07:32:38.205Z,14.27
2023-05-16T07:35:11.581Z,14.21
2023-05-16T07:37:43.877Z,14.16
2023-05-16T07:40:18.222Z,14.19
2023-05-16T07:42:50.081Z,14.28
2023-05-16T07:45:22.076Z,14.38
2023-05-16T07:47:54.307Z,14.48
2023-05-16T07:50:25.278Z,14.55
2023-05-16T07:52:57.200Z,14.56
2023-05-16T07:55:29.316Z,14.60
2023-05-16T07:58:01.519Z,14.63
2023-05-16T08:00:33.823Z,14.69
2023-05-16T08:03:06.676Z,14.73
2023-05-16T08:05:39.488Z,14.81
2023-05-16T08:08:09.944Z,14.91
2023-05-16T08:10:41.942Z,15.01
2023-05-16T08:13:13.790Z,15.14
2023-05-16T08:15:46.721Z,15.21
2023-05-16T08:18:20.689Z,15.26
2023-05-16T08:20:53.985Z,15.28
2023-05-16T08:23:26.253Z,15.24
2023-05-16T08:25:58.863Z,15.29
2023-05-16T08:28:31.070Z,15.30
2023-05-16T08:31:02.871Z,15.38
2023-05-16T08:33:34.713Z,15.55
2023-05-16T08:36:08.187Z,15.74
2023-05-16T08:38:40.112Z,15.81
2023-05-16T08:41:12.241Z,15.85
2023-05-16T08:43:44.176Z,15.84
2023-05-16T08:46:17.443Z,15.86
2023-05-16T08:48:52.937Z,15.88
2023-05-16T08:51:28.300Z,15.93
2023-05-16T08:54:04.862Z,16.00
2023-05-16T08:56:37.423Z,16.00
2023-05-16T08:59:09.578Z,16.06
2023-05-16T09:01:42.220Z,16.20
2023-05-16T09:04:12.680Z,16.27
2023-05-16T09:06:44.560Z,16.32
2023-05-16T09:09:16.420Z,16.33
2023-05-16T09:11:48.768Z,16.38
2023-05-16T09:14:20.533Z,16.49
2023-05-16T09:17:06.649Z,16.59
2023-05-16T09:19:42.308Z,16.59
2023-05-16T09:22:15.602Z,16.66
2023-05-16T09:24:48.809Z,16.68
2023-05-16T09:27:20.882Z,16.72
2023-05-16T09:29:54.489Z,16.85
2023-05-16T09:32:26.773Z,16.99
2023-05-16T09:34:58.841Z,17.09
2023-05-16T09:37:31.572Z,17.07
2023-05-16T09:40:05.421Z,16.99
2023-05-16T09:42:37.354Z,16.99
2023-05-16T09:45:12.766Z,17.09
2023-05-16T09:47:46.947Z,17.20
2023-05-16T09:50:19.704Z,17.25
2023-05-16T09:52:54.248Z,17.29
2023-05-16T09:55:26.225Z,17.30
2023-05-16T09:57:58.350Z,17.26
2023-05-16T10:00:33.742Z,17.20
2023-05-16T10:03:06.518Z,17.17
2023-05-16T10:05:39.495Z,17.10
2023-05-16T10:08:12.671Z,17.04
2023-05-16T10:10:44.802Z,17.18
2023-05-16T10:13:17.171Z,17.03
2023-05-16T10:15:49.837Z,16.92
2023-05-16T10:18:20.745Z,16.93
2023-05-16T10:20:56.184Z,17.22
2023-05-16T10:23:29.160Z,17.56
2023-05-16T10:26:02.506Z,17.67
2023-05-16T10:28:36.545Z,17.64
2023-05-16T10:31:08.926Z,17.69
2023-05-16T10:33:42.100Z,17.65
2023-05-16T10:36:15.903Z,17.36
2023-05-16T10:38:48.829Z,17.15
2023-05-16T10:41:22.510Z,17.17
2023-05-16T10:44:01.143Z,17.28
2023-05-16T10:46:34.165Z,17.54
2023-05-16T10:49:22.787Z,17.78
2023-05-16T10:52:08.695Z,18.10
2023-05-16T10:54:43.678Z,18.09
2023-05-16T10:57:23.987Z,18.06
2023-05-16T10:59:58.990Z,17.88
2023-05-16T11:02:33.852Z,17.94
2023-05-16T11:05:07.766Z,18.12
2023-05-16T11:07:40.034Z,18.03
2023-05-16T11:10:16.828Z,18.14
2023-05-16T11:12:52.456Z,18.04
2023-05-16T11:15:28.260Z,18.06
2023-05-16T11:18:11.367Z,18.11
2023-05-16T11:20:44.212Z,18.18
2023-05-16T11:23:24.381Z,18.11
2023-05-16T11:25:58.904Z,18.05
2023-05-16T11:28:31.016Z,18.20
2023-05-16T11:31:05.298Z,18.40
2023-05-16T11:33:37.216Z,18.53
2023-05-16T11:36:16.154Z,18.73
2023-05-16T11:38:48.415Z,18.69
2023-05-16T11:41:21.908Z,18.59
2023-05-16T11:43:53.775Z,18.63
2023-05-16T11:46:25.921Z,18.76
2023-05-16T11:48:57.830Z,18.75
2023-05-16T11:51:29.766Z,18.86
2023-05-16T11:54:05.422Z,18.83
2023-05-16T11:56:38.029Z,18.94
2023-05-16T11:59:11.620Z,19.02
2023-05-16T12:01:43.659Z,19.23
2023-05-16T12:04:16.849Z,19.23
2023-05-16T12:07:01.759Z,18.97
2023-05-16T12:09:33.614Z,18.86
2023-05-16T12:12:08.884Z,18.65
2023-05-16T12:14:40.877Z,18.22
2023-05-16T12:17:12.833Z,18.22
2023-05-16T12:19:46.410Z,18.25
2023-05-16T12:22:20.876Z,18.16
2023-05-16T12:24:52.740Z,18.14
2023-05-16T12:27:28.247Z,18.13
2023-05-16T12:30:02.426Z,18.27
2023-05-16T12:32:39.844Z,18.30
2023-05-16T12:35:13.995Z,18.24
2023-05-16T12:37:47.683Z,18.25
2023-05-16T12:40:20.733Z,18.18
2023-05-16T12:42:54.273Z,18.17
2023-05-16T12:45:27.986Z,18.14
2023-05-16T12:48:05.083Z,17.95
2023-05-16T12:50:37.142Z,18.02
2023-05-16T12:53:13.954Z,18.32
2023-05-16T12:55:46.425Z,18.41
2023-05-16T12:58:18.431Z,18.25
2023-05-16T13:00:50.274Z,18.22
2023-05-16T13:03:22.853Z,18.07
2023-05-16T13:05:53.201Z,18.00
2023-05-16T13:08:25.731Z,18.00
2023-05-16T13:10:57.781Z,17.94
2023-05-16T13:16:08.211Z,17.85
2023-05-16T13:18:40.439Z,17.79
2023-05-16T13:21:12.204Z,17.86
2023-05-16T13:23:44.042Z,17.81
2023-05-16T13:26:16.429Z,17.60
2023-05-16T13:28:47.229Z,17.63
2023-05-16T13:31:19.039Z,17.62
2023-05-16T13:33:50.914Z,17.51
2023-05-16T13:36:22.855Z,17.48
2023-05-16T13:38:54.792Z,17.44
2023-05-16T13:41:26.595Z,17.35
2023-05-16T13:43:58.391Z,17.40
2023-05-16T13:46:30.310Z,17.19
2023-05-16T13:49:02.386Z,17.03
2023-05-16T13:51:34.941Z,16.96
2023-05-16T13:54:06.813Z,16.77
2023-05-16T13:56:38.683Z,16.55
2023-05-16T13:59:15.080Z,16.29
2023-05-16T14:01:50.938Z,16.06
2023-05-16T14:04:22.964Z,15.95
2023-05-16T14:06:56.398Z,15.78
2023-05-16T14:09:28.548Z,15.75
2023-05-16T14:12:03.579Z,15.74
2023-05-16T14:14:35.729Z,15.79
2023-05-16T14:17:07.799Z,15.81
2023-05-16T14:19:39.765Z,15.86
2023-05-16T14:22:11.657Z,15.76
2023-05-16T14:24:43.380Z,15.86
2023-05-16T14:27:16.925Z,15.90
2023-05-16T14:29:48.927Z,15.89
2023-05-16T14:32:21.109Z,15.83
2023-05-16T14:34:53.351Z,15.86
2023-05-16T14:37:25.607Z,15.75
2023-05-16T14:39:57.674Z,15.77
2023-05-16T14:42:29.789Z,15.73
2023-05-16T14:45:01.724Z,15.66
2023-05-16T14:47:33.721Z,15.70
2023-05-16T14:50:05.979Z,15.58
2023-05-16T14:52:38.995Z,15.68
2023-05-16T14:55:11.235Z,15.71
2023-05-16T14:57:45.509Z,15.71
2023-05-16T15:00:24.016Z,15.58
2023-05-16T15:02:55.817Z,15.61
2023-05-16T15:05:29.368Z,15.62
2023-05-16T15:08:01.258Z,15.49
2023-05-16T15:10:33.210Z,15.57
2023-05-16T15:13:05.170Z,15.56
2023-05-16T15:15:38.680Z,15.55
2023-05-16T15:18:11.786Z,15.50
2023-05-16T15:20:43.738Z,15.52
2023-05-16T15:23:15.548Z,15.52
2023-05-16T15:25:47.470Z,15.42
2023-05-16T15:28:22.422Z,15.44
2023-05-16T15:30:54.744Z,15.43
2023-05-16T15:33:26.538Z,15.37
2023-05-16T15:35:58.726Z,15.14
2023-05-16T15:38:30.871Z,15.02
2023-05-16T15:41:18.555Z,14.90
2023-05-16T15:43:54.292Z,14.89
2023-05-16T15:46:27.526Z,14.85
2023-05-16T15:48:59.674Z,14.92
2023-05-16T15:51:31.625Z,14.85
2023-05-16T15:54:04.812Z,14.94
2023-05-16T15:56:36.751Z,15.00
2023-05-16T15:59:08.556Z,15.01
2023-05-16T16:01:41.057Z,14.82
2023-05-16T16:04:14.504Z,14.75
2023-05-16T16:06:46.637Z,14.80
2023-05-16T16:09:18.562Z,14.84
2023-05-16T16:11:55.979Z,14.85
2023-05-16T16:14:27.939Z,14.81
2023-05-16T16:16:59.700Z,14.74
2023-05-16T16:19:32.455Z,14.65
2023-05-16T16:22:02.707Z,14.60
2023-05-16T16:24:34.639Z,14.49
2023-05-16T16:27:07.003Z,14.29
2023-05-16T16:29:38.854Z,14.25
2023-05-16T16:32:11.130Z,14.19
2023-05-16T16:34:43.011Z,14.17
2023-05-16T16:37:14.790Z,14.16
2023-05-16T16:39:46.630Z,14.13
2023-05-16T16:42:18.519Z,14.13
2023-05-16T16:44:51.413Z,14.16
2023-05-16T16:47:25.134Z,14.02
2023-05-16T16:49:57.183Z,13.82
2023-05-16T16:52:29.422Z,13.67
2023-05-16T16:55:01.737Z,13.51
2023-05-16T16:57:34.240Z,13.45
2023-05-16T17:00:08.869Z,13.45
2023-05-16T17:02:41.104Z,13.41
2023-05-16T17:05:13.563Z,13.47
2023-05-16T17:07:45.879Z,13.35
2023-05-16T17:10:18.331Z,13.33
2023-05-16T17:12:50.169Z,13.35
2023-05-16T17:15:21.985Z,13.34
2023-05-16T17:17:53.821Z,13.32
2023-05-16T17:20:25.690Z,13.28
2023-05-16T17:22:57.635Z,13.17
2023-05-16T17:25:30.684Z,13.21
2023-05-16T17:28:03.151Z,13.21
2023-05-16T17:30:34.987Z,13.24
2023-05-16T17:33:08.194Z,13.24
2023-05-16T17:35:40.825Z,13.14
2023-05-16T17:38:13.041Z,13.12
2023-05-16T17:40:44.919Z,13.09
2023-05-16T17:43:16.676Z,13.08
2023-05-16T17:45:48.697Z,13.08
2023-05-16T17:48:21.071Z,13.03
2023-05-16T17:50:52.844Z,12.98
2023-05-16T17:53:24.891Z,12.97
2023-05-16T17:55:56.693Z,12.93
2023-05-16T17:58:28.561Z,12.93
2023-05-16T18:01:02.148Z,12.93
2023-05-16T18:03:34.178Z,12.98
2023-05-16T18:06:06.938Z,12.92
2023-05-16T18:08:37.200Z,12.97
2023-05-16T18:11:09.200Z,12.95
2023-05-16T18:13:42.288Z,12.96
2023-05-16T18:16:14.086Z,12.93
2023-05-16T18:18:46.068Z,12.92
2023-05-16T18:21:17.975Z,13.00
2023-05-16T18:23:50.225Z,12.95
2023-05-16T18:26:22.251Z,12.93
2023-05-16T18:28:54.373Z,13.01
2023-05-16T18:31:26.814Z,12.95
2023-05-16T18:33:58.741Z,12.92
2023-05-16T18:36:30.575Z,12.88
2023-05-16T18:39:02.407Z,12.89
2023-05-16T18:41:34.288Z,12.92
2023-05-16T18:44:06.860Z,12.87
2023-05-16T18:46:38.679Z,12.89
2023-05-16T18:49:10.719Z,12.88
2023-05-16T18:51:42.553Z,12.86
2023-05-16T18:54:14.599Z,12.91
2023-05-16T18:56:46.938Z,12.95
2023-05-16T18:59:18.796Z,12.94
2023-05-16T19:01:50.691Z,12.96
2023-05-16T19:04:22.846Z,12.99
2023-05-16T19:06:56.420Z,12.96
2023-05-16T19:09:28.617Z,12.98
2023-05-16T19:12:00.555Z,12.97
2023-05-16T19:14:32.512Z,12.93
2023-05-16T19:17:04.896Z,12.90
2023-05-16T19:19:37.016Z,12.92
2023-05-16T19:22:11.134Z,12.99
2023-05-16T19:24:42.996Z,12.96
2023-05-16T19:27:15.050Z,13.00
2023-05-16T19:29:46.979Z,13.04
2023-05-16T19:32:18.910Z,13.00
2023-05-16T19:34:51.158Z,13.00
2023-05-16T19:37:30.036Z,13.05
2023-05-16T19:40:02.427Z,13.10
2023-05-16T19:42:34.273Z,13.14
2023-05-16T19:45:07.033Z,13.08
2023-05-16T19:47:38.044Z,13.07
2023-05-16T19:50:12.182Z,13.08
2023-05-16T19:52:44.086Z,13.10
2023-05-16T19:55:16.333Z,13.11
2023-05-16T19:57:51.052Z,13.08
2023-05-16T20:00:23.294Z,13.00
2023-05-16T20:02:55.179Z,13.02
2023-05-16T20:05:27.526Z,13.02
2023-05-16T20:07:59.997Z,12.97
2023-05-16T20:10:32.091Z,13.02
2023-05-16T20:13:03.926Z,13.06
2023-05-16T20:15:36.241Z,12.99
2023-05-16T20:18:08.855Z,13.02
2023-05-16T20:20:41.454Z,13.09
2023-05-16T20:23:12.056Z,13.05
2023-05-16T20:25:43.886Z,13.02
2023-05-16T20:28:15.574Z,13.05
2023-05-16T20:30:48.021Z,12.96
2023-05-16T20:33:20.313Z,12.96
2023-05-16T20:35:52.436Z,12.91
2023-05-16T20:38:24.721Z,12.86
2023-05-16T20:40:56.766Z,12.86
2023-05-16T20:43:28.715Z,12.83
2023-05-16T20:46:00.604Z,12.82
2023-05-16T20:48:32.428Z,12.83
2023-05-16T20:51:04.615Z,12.81
2023-05-16T20:53:37.321Z,12.78
2023-05-16T20:56:07.985Z,12.78
2023-05-16T20:58:42.244Z,12.81
2023-05-16T21:01:14.187Z,12.79
2023-05-16T21:03:45.911Z,12.74
2023-05-16T21:06:18.338Z,12.72
2023-05-16T21:08:50.469Z,12.81
2023-05-16T21:11:22.690Z,12.79
2023-05-16T21:13:54.738Z,12.70
2023-05-16T21:16:26.912Z,12.67
2023-05-16T21:19:02.860Z,12.59
2023-05-16T21:21:35.224Z,12.60
2023-05-16T21:24:07.553Z,12.59
2023-05-16T21:26:39.336Z,12.58
2023-05-16T21:29:11.323Z,12.57
2023-05-16T21:31:43.112Z,12.58
2023-05-16T21:34:15.293Z,12.58
2023-05-16T21:36:46.044Z,12.61
2023-05-16T21:39:17.911Z,12.71
2023-05-16T21:41:49.785Z,12.61
2023-05-16T21:44:21.525Z,12.62
2023-05-16T21:46:54.190Z,12.57
2023-05-16T21:49:24.454Z,12.55
2023-05-16T21:51:56.169Z,12.60
2023-05-16T21:54:27.908Z,12.63
2023-05-16T21:56:59.913Z,12.70
2023-05-16T21:59:31.971Z,12.61
2023-05-16T22:02:03.905Z,12.57
2023-05-16T22:04:36.150Z,12.60
2023-05-16T22:07:08.027Z,12.58
2023-05-16T22:09:39.736Z,12.52
2023-05-16T22:12:11.891Z,12.54
2023-05-16T22:14:43.790Z,12.55
2023-05-16T22:17:16.101Z,12.48
2023-05-16T22:19:48.236Z,12.44
2023-05-16T22:22:20.597Z,12.41
2023-05-16T22:24:52.328Z,12.42
2023-05-16T22:27:24.077Z,12.45
2023-05-16T22:29:55.841Z,12.41
2023-05-16T22:32:28.585Z,12.45
2023-05-16T22:35:00.764Z,12.51
2023-05-16T22:37:32.630Z,12.61
2023-05-16T22:40:04.501Z,12.60
2023-05-16T22:42:36.274Z,12.55
2023-05-16T22:45:09.759Z,12.46
2023-05-16T22:47:41.555Z,12.41
2023-05-16T22:50:14.559Z,12.37
2023-05-16T22:52:44.990Z,12.37
2023-05-16T22:55:16.988Z,12.40
2023-05-16T22:57:48.738Z,12.34
2023-05-16T23:00:23.539Z,12.31
2023-05-16T23:02:55.365Z,12.26
2023-05-16T23:05:27.502Z,12.20
2023-05-16T23:08:00.091Z,12.24
2023-05-16T23:10:32.072Z,12.25
2023-05-16T23:13:03.877Z,12.25
2023-05-16T23:15:35.588Z,12.25
2023-05-16T23:18:07.527Z,12.28
2023-05-16T23:20:39.548Z,12.28
2023-05-16T23:23:11.223Z,12.27
2023-05-16T23:25:42.916Z,12.24
2023-05-16T23:28:15.009Z,12.23
2023-05-16T23:30:46.846Z,12.26
2023-05-16T23:33:18.806Z,12.25
2023-05-16T23:35:50.753Z,12.22
2023-05-16T23:38:22.934Z,12.20
2023-05-16T23:40:54.729Z,12.29
2023-05-16T23:43:26.404Z,12.18
2023-05-16T23:45:59.492Z,12.20
2023-05-16T23:48:31.365Z,12.16
2023-05-16T23:51:04.592Z,12.24
2023-05-16T23:53:36.290Z,12.21
2023-05-16T23:56:08.248Z,12.20
2023-05-16T23:58:40.421Z,12.25
